createdAt,value
2018-08-13T00:01:39.304Z,95166.00
2018-08-13T00:04:10.784Z,95167.00
2018-08-13T00:06:41.787Z,95163.00
2018-08-13T00:09:12.796Z,95160.00
2018-08-13T00:11:43.826Z,95164.00
2018-08-13T00:14:14.676Z,95152.00
2018-08-13T00:16:45.657Z,95150.00
2018-08-13T00:19:17.084Z,95148.00
2018-08-13T00:21:48.064Z,95148.00
2018-08-13T00:24:19.077Z,95149.00
2018-08-13T00:26:50.013Z,95147.00
2018-08-13T00:29:20.984Z,95146.00
2018-08-13T00:31:51.914Z,95150.00
2018-08-13T00:34:22.845Z,95144.00
2018-08-13T00:36:53.744Z,95141.00
2018-08-13T00:39:24.736Z,95142.00
2018-08-13T00:41:55.700Z,95141.00
2018-08-13T00:44:26.724Z,95130.00
2018-08-13T00:46:57.820Z,95130.00
2018-08-13T00:49:29.225Z,95133.00
2018-08-13T00:52:00.345Z,95131.00
2018-08-13T00:54:31.287Z,95138.00
2018-08-13T00:57:02.245Z,95138.00
2018-08-13T00:59:33.174Z,95134.00
2018-08-13T01:02:03.971Z,95127.00
2018-08-13T01:04:34.974Z,95132.00
2018-08-13T01:07:06.304Z,95127.00
2018-08-13T01:09:37.158Z,95120.00
2018-08-13T01:12:08.136Z,95118.00
2018-08-13T01:14:39.104Z,95120.00
2018-08-13T01:17:10.125Z,95123.00
2018-08-13T01:19:41.040Z,95122.00
2018-08-13T01:22:12.037Z,95111.00
2018-08-13T01:24:42.944Z,95107.00
2018-08-13T01:27:17.895Z,95104.00
2018-08-13T01:29:48.828Z,95100.00
2018-08-13T01:32:19.776Z,95102.00
2018-08-13T01:34:50.644Z,95104.00
2018-08-13T01:37:21.584Z,95091.00
2018-08-13T01:39:52.565Z,95092.00
2018-08-13T01:42:23.589Z,95091.00
2018-08-13T01:44:54.525Z,95092.00
2018-08-13T01:47:25.525Z,95093.00
2018-08-13T01:49:56.424Z,95088.00
2018-08-13T01:52:27.443Z,95091.00
2018-08-13T01:54:58.328Z,95082.00
2018-08-13T01:57:29.224Z,95088.00
2018-08-13T02:00:00.165Z,95089.00
2018-08-13T02:02:31.586Z,95096.00
2018-08-13T02:05:02.443Z,95097.00
2018-08-13T02:07:33.495Z,95098.00
2018-08-13T02:10:04.644Z,95101.00
2018-08-13T02:12:35.604Z,95098.00
2018-08-13T02:15:07.615Z,95095.00
2018-08-13T02:17:38.603Z,95092.00
2018-08-13T02:20:10.603Z,95086.00
2018-08-13T02:22:41.576Z,95085.00
2018-08-13T02:25:12.564Z,95081.00
2018-08-13T02:27:43.636Z,95073.00
2018-08-13T02:30:14.596Z,95075.00
2018-08-13T02:32:45.696Z,95074.00
2018-08-13T02:35:16.676Z,95072.00
2018-08-13T02:37:48.736Z,95064.00
2018-08-13T02:40:19.729Z,95066.00
2018-08-13T02:42:50.787Z,95061.00
2018-08-13T02:45:21.768Z,95053.00
2018-08-13T02:47:52.796Z,95051.00
2018-08-13T02:50:23.797Z,95056.00
2018-08-13T02:52:54.856Z,95055.00
2018-08-13T02:55:25.772Z,95056.00
2018-08-13T02:57:57.229Z,95051.00
2018-08-13T03:00:28.244Z,95054.00
2018-08-13T03:02:59.260Z,95053.00
2018-08-13T03:05:30.188Z,95049.00
2018-08-13T03:08:01.276Z,95045.00
2018-08-13T03:10:32.287Z,95043.00
2018-08-13T03:13:03.310Z,95042.00
2018-08-13T03:15:34.312Z,95045.00
2018-08-13T03:18:05.356Z,95047.00
2018-08-13T03:20:36.329Z,95051.00
2018-08-13T03:23:07.840Z,95054.00
2018-08-13T03:25:38.795Z,95054.00
2018-08-13T03:28:09.991Z,95050.00
2018-08-13T03:30:40.938Z,95062.00
2018-08-13T03:33:12.349Z,95060.00
2018-08-13T03:35:43.259Z,95057.00
2018-08-13T03:38:14.257Z,95057.00
2018-08-13T03:40:45.136Z,95053.00
2018-08-13T03:43:16.136Z,95057.00
2018-08-13T03:45:46.992Z,95056.00
2018-08-13T03:48:17.888Z,95056.00
2018-08-13T03:50:48.796Z,95052.00
2018-08-13T03:53:19.841Z,95053.00
2018-08-13T03:55:50.676Z,95057.00
2018-08-13T03:58:21.736Z,95060.00
2018-08-13T04:00:52.736Z,95061.00
2018-08-13T04:03:24.317Z,95061.00
2018-08-13T04:05:55.215Z,95055.00
2018-08-13T04:08:26.171Z,95045.00
2018-08-13T04:10:57.076Z,95044.00
2018-08-13T04:13:28.396Z,95051.00
2018-08-13T04:15:59.328Z,95053.00
2018-08-13T04:18:30.272Z,95049.00
2018-08-13T04:21:01.216Z,95050.00
2018-08-13T04:23:32.368Z,95049.00
2018-08-13T04:26:03.892Z,95047.00
2018-08-13T04:28:35.148Z,95046.00
2018-08-13T04:31:06.324Z,95051.00
2018-08-13T04:33:37.511Z,95050.00
2018-08-13T04:36:08.695Z,95057.00
2018-08-13T04:38:39.769Z,95060.00
2018-08-13T04:41:10.809Z,95061.00
2018-08-13T04:43:41.759Z,95064.00
2018-08-13T04:46:13.297Z,95060.00
2018-08-13T04:48:44.244Z,95060.00
2018-08-13T04:51:15.116Z,95054.00
2018-08-13T04:53:46.099Z,95059.00
2018-08-13T04:56:17.031Z,95061.00
2018-08-13T04:58:47.995Z,95066.00
2018-08-13T05:01:18.869Z,95062.00
2018-08-13T05:03:49.906Z,95062.00
2018-08-13T05:06:20.827Z,95061.00
2018-08-13T05:08:51.718Z,95067.00
2018-08-13T05:11:23.409Z,95069.00
2018-08-13T05:13:54.375Z,95062.00
2018-08-13T05:16:25.328Z,95058.00
2018-08-13T05:18:56.316Z,95053.00
2018-08-13T05:21:27.236Z,95055.00
2018-08-13T05:23:58.270Z,95057.00
2018-08-13T05:26:29.224Z,95058.00
2018-08-13T05:29:00.490Z,95054.00
2018-08-13T05:31:31.356Z,95044.00
2018-08-13T05:34:02.296Z,95040.00
2018-08-13T05:36:33.257Z,95040.00
2018-08-13T05:39:05.528Z,95039.00
2018-08-13T05:41:36.354Z,95039.00
2018-08-13T05:44:07.659Z,95035.00
2018-08-13T05:46:38.668Z,95042.00
2018-08-13T05:49:09.643Z,95043.00
2018-08-13T05:51:40.496Z,95043.00
2018-08-13T05:54:11.470Z,95043.00
2018-08-13T05:56:42.461Z,95051.00
2018-08-13T05:59:13.537Z,95046.00
2018-08-13T06:01:44.508Z,95041.00
2018-08-13T06:04:15.538Z,95040.00
2018-08-13T06:06:46.944Z,95039.00
2018-08-13T06:09:17.961Z,95034.00
2018-08-13T06:11:48.889Z,95032.00
2018-08-13T06:14:20.153Z,95039.00
2018-08-13T06:16:51.376Z,95034.00
2018-08-13T06:19:22.300Z,95040.00
2018-08-13T06:21:53.313Z,95029.00
2018-08-13T06:24:24.352Z,95025.00
2018-08-13T06:26:55.344Z,95024.00
2018-08-13T06:29:26.353Z,95024.00
2018-08-13T06:31:57.218Z,95022.00
2018-08-13T06:34:28.433Z,95019.00
2018-08-13T06:36:59.317Z,95018.00
2018-08-13T06:39:30.169Z,95018.00
2018-08-13T06:42:01.067Z,95016.00
2018-08-13T06:44:31.917Z,95015.00
2018-08-13T06:47:02.794Z,95014.00
2018-08-13T06:49:33.769Z,95011.00
2018-08-13T06:52:04.677Z,95007.00
2018-08-13T06:54:35.556Z,94996.00
2018-08-13T06:57:07.537Z,94997.00
2018-08-13T06:59:38.576Z,94990.00
2018-08-13T07:02:09.830Z,94998.00
2018-08-13T07:04:40.737Z,95001.00
2018-08-13T07:07:11.577Z,95000.00
2018-08-13T07:09:42.600Z,94992.00
2018-08-13T07:12:13.700Z,94992.00
2018-08-13T07:14:44.897Z,94984.00
2018-08-13T07:17:16.045Z,94977.00
2018-08-13T07:19:47.176Z,94975.00
2018-08-13T07:22:18.359Z,94977.00
2018-08-13T07:24:49.354Z,94978.00
2018-08-13T07:27:20.292Z,94978.00
2018-08-13T07:29:51.641Z,94980.00
2018-08-13T07:32:22.624Z,94976.00
2018-08-13T07:34:53.518Z,94974.00
2018-08-13T07:37:24.597Z,94976.00
2018-08-13T07:39:55.509Z,94973.00
2018-08-13T07:42:26.377Z,94970.00
2018-08-13T07:44:57.371Z,94974.00
2018-08-13T07:47:28.397Z,94975.00
2018-08-13T07:49:59.376Z,94974.00
2018-08-13T07:52:30.311Z,94970.00
2018-08-13T07:55:01.269Z,94969.00
2018-08-13T07:57:32.188Z,94959.00
2018-08-13T08:00:03.212Z,94953.00
2018-08-13T08:02:34.132Z,94951.00
2018-08-13T08:05:05.728Z,94944.00
2018-08-13T08:07:36.676Z,94945.00
2018-08-13T08:10:11.077Z,94937.00
2018-08-13T08:12:42.451Z,94937.00
2018-08-13T08:15:17.017Z,94936.00
2018-08-13T08:17:47.941Z,94935.00
2018-08-13T08:20:18.929Z,94925.00
2018-08-13T08:22:49.878Z,94924.00
2018-08-13T08:25:22.211Z,94923.00
2018-08-13T08:27:53.177Z,94924.00
2018-08-13T08:30:24.173Z,94917.00
2018-08-13T08:32:55.176Z,94915.00
2018-08-13T08:35:26.157Z,94915.00
2018-08-13T08:37:57.729Z,94913.00
2018-08-13T08:40:28.862Z,94911.00
2018-08-13T08:42:59.742Z,94909.00
2018-08-13T08:45:31.558Z,94901.00
2018-08-13T08:48:02.636Z,94907.00
2018-08-13T08:50:33.616Z,94905.00
2018-08-13T08:53:04.849Z,94903.00
2018-08-13T08:55:35.917Z,94894.00
2018-08-13T08:58:07.054Z,94897.00
2018-08-13T09:00:38.225Z,94897.00
2018-08-13T09:03:09.517Z,94894.00
2018-08-13T09:05:40.587Z,94892.00
2018-08-13T09:08:11.648Z,94890.00
2018-08-13T09:10:42.738Z,94892.00
2018-08-13T09:13:13.681Z,94897.00
2018-08-13T09:15:44.659Z,94898.00
2018-08-13T09:18:32.032Z,94886.00
2018-08-13T09:21:19.681Z,94891.00
2018-08-13T09:24:07.070Z,94886.00
2018-08-13T09:26:54.692Z,94879.00
2018-08-13T09:30:45.708Z,94879.00
2018-08-13T09:33:33.224Z,94866.00
2018-08-13T09:36:04.179Z,94863.00
2018-08-13T09:38:35.297Z,94855.00
2018-08-13T09:41:06.377Z,94857.00
2018-08-13T09:43:37.709Z,94848.00
2018-08-13T09:46:08.915Z,94845.00
2018-08-13T09:48:40.057Z,94847.00
2018-08-13T09:51:11.093Z,94839.00
2018-08-13T09:53:42.335Z,94826.00
2018-08-13T09:56:13.430Z,94824.00
2018-08-13T09:58:44.432Z,94813.00
2018-08-13T10:01:15.371Z,94808.00
2018-08-13T10:03:46.403Z,94804.00
2018-08-13T10:06:17.369Z,94793.00
2018-08-13T10:08:48.400Z,94787.00
2018-08-13T10:11:19.466Z,94779.00
2018-08-13T10:13:50.487Z,94766.00
2018-08-13T10:16:21.504Z,94753.00
2018-08-13T10:18:52.662Z,94746.00
2018-08-13T10:21:23.717Z,94754.00
2018-08-13T10:23:54.744Z,94762.00
2018-08-13T10:26:25.790Z,94760.00
2018-08-13T10:28:56.776Z,94756.00
2018-08-13T10:31:27.827Z,94759.00
2018-08-13T10:33:58.997Z,94752.00
2018-08-13T10:36:29.937Z,94750.00
2018-08-13T10:39:00.960Z,94743.00
2018-08-13T10:41:32.077Z,94743.00
2018-08-13T10:44:04.096Z,94733.00
2018-08-13T10:46:35.209Z,94729.00
2018-08-13T10:49:06.287Z,94732.00
2018-08-13T10:51:37.336Z,94726.00
2018-08-13T10:54:09.229Z,94725.00
2018-08-13T10:56:40.233Z,94724.00
2018-08-13T10:59:11.307Z,94724.00
2018-08-13T11:01:42.213Z,94720.00
2018-08-13T11:04:13.276Z,94715.00
2018-08-13T11:06:44.266Z,94708.00
2018-08-13T11:09:15.575Z,94708.00
2018-08-13T11:11:46.536Z,94707.00
2018-08-13T11:14:17.937Z,94708.00
2018-08-13T11:16:48.810Z,94704.00
2018-08-13T11:19:19.916Z,94699.00
2018-08-13T11:21:51.016Z,94697.00
2018-08-13T11:24:28.597Z,94700.00
2018-08-13T11:26:59.573Z,94692.00
2018-08-13T11:29:30.557Z,94683.00
2018-08-13T11:32:01.967Z,94682.00
2018-08-13T11:34:33.528Z,94677.00
2018-08-13T11:37:04.538Z,94663.00
2018-08-13T11:39:35.500Z,94667.00
2018-08-13T11:42:06.517Z,94666.00
2018-08-13T11:44:37.465Z,94663.00
2018-08-13T11:47:08.335Z,94661.00
2018-08-13T11:49:39.305Z,94657.00
2018-08-13T11:52:10.217Z,94652.00
2018-08-13T11:54:41.078Z,94649.00
2018-08-13T11:57:11.997Z,94649.00
2018-08-13T11:59:42.983Z,94654.00
2018-08-13T12:02:14.038Z,94637.00
2018-08-13T12:04:45.237Z,94647.00
2018-08-13T12:07:16.073Z,94638.00
2018-08-13T12:09:47.023Z,94629.00
2018-08-13T12:12:17.977Z,94637.00
2018-08-13T12:14:49.937Z,94630.00
2018-08-13T12:17:20.737Z,94622.00
2018-08-13T12:19:51.677Z,94617.00
2018-08-13T12:22:22.589Z,94610.00
2018-08-13T12:24:53.480Z,94606.00
2018-08-13T12:27:24.397Z,94606.00
2018-08-13T12:29:55.452Z,94597.00
2018-08-13T12:32:26.420Z,94596.00
2018-08-13T12:34:57.336Z,94597.00
2018-08-13T12:37:28.340Z,94588.00
2018-08-13T12:39:59.418Z,94583.00
2018-08-13T12:42:30.426Z,94577.00
2018-08-13T12:45:01.590Z,94570.00
2018-08-13T12:47:32.672Z,94565.00
2018-08-13T12:50:03.597Z,94552.00
2018-08-13T12:52:34.457Z,94558.00
2018-08-13T12:55:07.213Z,94553.00
2018-08-13T12:57:38.265Z,94543.00
2018-08-13T13:00:16.796Z,94544.00
2018-08-13T13:02:47.797Z,94530.00
2018-08-13T13:05:19.997Z,94526.00
2018-08-13T13:07:50.941Z,94530.00
2018-08-13T13:10:21.937Z,94524.00
2018-08-13T13:12:52.849Z,94528.00
2018-08-13T13:15:23.897Z,94524.00
2018-08-13T13:17:54.778Z,94528.00
2018-08-13T13:20:25.750Z,94523.00
2018-08-13T13:22:56.669Z,94516.00
2018-08-13T13:25:28.197Z,94512.00
2018-08-13T13:27:59.180Z,94508.00
2018-08-13T13:30:30.145Z,94502.00
2018-08-13T13:33:01.124Z,94503.00
2018-08-13T13:35:32.129Z,94493.00
2018-08-13T13:38:03.158Z,94490.00
2018-08-13T13:40:34.285Z,94488.00
2018-08-13T13:43:05.824Z,94491.00
2018-08-13T13:45:37.058Z,94485.00
2018-08-13T13:48:09.177Z,94484.00
2018-08-13T13:50:40.715Z,94474.00
2018-08-13T13:53:12.022Z,94469.00
2018-08-13T13:55:43.297Z,94462.00
2018-08-13T13:58:14.472Z,94461.00
2018-08-13T14:00:45.443Z,94470.00
2018-08-13T14:03:16.257Z,94473.00
2018-08-13T14:05:47.176Z,94473.00
2018-08-13T14:08:18.123Z,94470.00
2018-08-13T14:10:49.077Z,94478.00
2018-08-13T14:13:19.998Z,94475.00
2018-08-13T14:15:51.069Z,94474.00
2018-08-13T14:18:22.077Z,94484.00
2018-08-13T14:20:53.200Z,94484.00
2018-08-13T14:23:24.117Z,94482.00
2018-08-13T14:25:55.099Z,94478.00
2018-08-13T14:28:26.048Z,94479.00
2018-08-13T14:30:56.977Z,94476.00
2018-08-13T14:33:27.795Z,94484.00
2018-08-13T14:35:58.775Z,94480.00
2018-08-13T14:38:29.716Z,94478.00
2018-08-13T14:41:00.697Z,94483.00
2018-08-13T14:43:31.702Z,94486.00
2018-08-13T14:46:02.611Z,94499.00
2018-08-13T14:48:33.665Z,94498.00
2018-08-13T14:51:05.025Z,94503.00
2018-08-13T14:53:36.117Z,94524.00
2018-08-13T14:56:07.809Z,94533.00
2018-08-13T14:58:39.112Z,94544.00
2018-08-13T15:01:10.155Z,94558.00
2018-08-13T15:03:41.089Z,94561.00
2018-08-13T15:06:12.186Z,94550.00
2018-08-13T15:08:43.187Z,94581.00
2018-08-13T15:11:14.344Z,94567.00
2018-08-13T15:13:45.518Z,94583.00
2018-08-13T15:16:16.600Z,94591.00
2018-08-13T15:18:47.630Z,94623.00
2018-08-13T15:21:18.639Z,94597.00
2018-08-13T15:23:49.633Z,94639.00
2018-08-13T15:26:20.676Z,94632.00
2018-08-13T15:28:51.638Z,94652.00
2018-08-13T15:31:22.701Z,94662.00
2018-08-13T15:33:53.590Z,94684.00
2018-08-13T15:36:24.664Z,94702.00
2018-08-13T15:38:55.650Z,94704.00
2018-08-13T15:41:26.637Z,94706.00
2018-08-13T15:43:57.617Z,94671.00
2018-08-13T15:46:28.648Z,94684.00
2018-08-13T15:48:59.478Z,94674.00
2018-08-13T15:51:30.446Z,94690.00
2018-08-13T15:54:01.440Z,94708.00
2018-08-13T15:56:32.489Z,94691.00
2018-08-13T15:59:04.539Z,94714.00
2018-08-13T16:01:35.452Z,94701.00
2018-08-13T16:04:06.379Z,94711.00
2018-08-13T16:06:38.777Z,94717.00
2018-08-13T16:09:09.789Z,94713.00
2018-08-13T16:11:40.778Z,94705.00
2018-08-13T16:14:12.890Z,94716.00
2018-08-13T16:16:43.813Z,94721.00
2018-08-13T16:19:14.877Z,94716.00
2018-08-13T16:21:45.945Z,94713.00
2018-08-13T16:24:17.050Z,94711.00
2018-08-13T16:26:48.305Z,94711.00
2018-08-13T16:29:19.411Z,94707.00
2018-08-13T16:31:50.391Z,94730.00
2018-08-13T16:34:21.418Z,94733.00
2018-08-13T16:36:52.389Z,94743.00
2018-08-13T16:39:23.237Z,94744.00
2018-08-13T16:41:54.201Z,94744.00
2018-08-13T16:44:25.057Z,94770.00
2018-08-13T16:46:55.990Z,94790.00
2018-08-13T16:49:27.573Z,94797.00
2018-08-13T16:51:58.635Z,94840.00
2018-08-13T16:54:29.607Z,94889.00
2018-08-13T16:57:00.739Z,94925.00
2018-08-13T16:59:31.730Z,94940.00
2018-08-13T17:02:02.932Z,94939.00
2018-08-13T17:04:33.869Z,94946.00
2018-08-13T17:07:04.789Z,94966.00
2018-08-13T17:09:35.685Z,94976.00
2018-08-13T17:12:07.024Z,94970.00
2018-08-13T17:14:38.137Z,94954.00
2018-08-13T17:17:09.981Z,94946.00
2018-08-13T17:19:41.002Z,94937.00
2018-08-13T17:22:12.118Z,94930.00
2018-08-13T17:24:43.180Z,94923.00
2018-08-13T17:27:14.409Z,94915.00
2018-08-13T17:29:45.408Z,94910.00
2018-08-13T17:32:17.073Z,94913.00
2018-08-13T17:34:48.133Z,94915.00
2018-08-13T17:37:19.829Z,94917.00
2018-08-13T17:39:51.479Z,94918.00
2018-08-13T17:42:24.428Z,94925.00
2018-08-13T17:44:55.441Z,94919.00
2018-08-13T17:47:26.773Z,94930.00
2018-08-13T17:49:57.957Z,94932.00
2018-08-13T17:52:30.197Z,94932.00
2018-08-13T17:55:01.149Z,94931.00
2018-08-13T17:57:33.165Z,94930.00
2018-08-13T18:00:04.337Z,94926.00
2018-08-13T18:02:35.415Z,94924.00
2018-08-13T18:05:09.597Z,94938.00
2018-08-13T18:07:40.672Z,94939.00
2018-08-13T18:10:16.039Z,94943.00
2018-08-13T18:12:47.398Z,94949.00
2018-08-13T18:15:18.597Z,94955.00
2018-08-13T18:17:49.911Z,94954.00
2018-08-13T18:20:20.997Z,94956.00
2018-08-13T18:22:52.078Z,94951.00
2018-08-13T18:25:23.530Z,94948.00
2018-08-13T18:27:55.890Z,94948.00
2018-08-13T18:30:28.755Z,94947.00
2018-08-13T18:32:59.816Z,94947.00
2018-08-13T18:35:30.900Z,94948.00
2018-08-13T18:38:02.914Z,94951.00
2018-08-13T18:40:35.738Z,94956.00
2018-08-13T18:43:06.924Z,94961.00
2018-08-13T18:45:38.019Z,94965.00
2018-08-13T18:48:09.483Z,94970.00
2018-08-13T18:50:41.033Z,94975.00
2018-08-13T18:53:13.067Z,94979.00
2018-08-13T18:55:44.704Z,94980.00
2018-08-13T18:58:16.437Z,94982.00
2018-08-13T19:00:55.073Z,94983.00
2018-08-13T19:03:26.234Z,94983.00
2018-08-13T19:05:57.942Z,94988.00
2018-08-13T19:08:29.286Z,94987.00
2018-08-13T19:11:02.309Z,94990.00
2018-08-13T19:13:34.438Z,94996.00
2018-08-13T19:16:07.799Z,95003.00
2018-08-13T19:18:39.330Z,95007.00
2018-08-13T19:21:10.516Z,95006.00
2018-08-13T19:23:42.330Z,95007.00
2018-08-13T19:26:14.740Z,95009.00
2018-08-13T19:28:49.571Z,95016.00
2018-08-13T19:31:21.193Z,95018.00
2018-08-13T19:33:52.288Z,95016.00
2018-08-13T19:36:23.374Z,95016.00
2018-08-13T19:38:55.792Z,95016.00
2018-08-13T19:41:26.709Z,95023.00
2018-08-13T19:43:59.054Z,95031.00
2018-08-13T19:49:14.310Z,95040.00
2018-08-13T19:51:48.390Z,95042.00
2018-08-13T19:54:20.923Z,95044.00
2018-08-13T19:56:54.149Z,95049.00
2018-08-13T19:59:27.515Z,95047.00
2018-08-13T20:01:59.469Z,95053.00
2018-08-13T20:04:31.091Z,95054.00
2018-08-13T20:07:03.483Z,95059.00
2018-08-13T20:09:34.957Z,95060.00
2018-08-13T20:12:06.801Z,95057.00
2018-08-13T20:14:37.835Z,95058.00
2018-08-13T20:17:09.293Z,95058.00
2018-08-13T20:19:40.548Z,95065.00
2018-08-13T20:22:16.618Z,95068.00
2018-08-13T20:24:47.712Z,95066.00
2018-08-13T20:27:19.812Z,95072.00
2018-08-13T20:29:50.859Z,95071.00
2018-08-13T20:32:22.031Z,95072.00
2018-08-13T20:34:53.589Z,95082.00
2018-08-13T20:37:24.610Z,95084.00
2018-08-13T20:39:55.712Z,95084.00
2018-08-13T20:42:27.549Z,95082.00
2018-08-13T20:44:59.357Z,95081.00
2018-08-13T20:47:30.353Z,95088.00
2018-08-13T20:50:03.391Z,95091.00
2018-08-13T20:52:34.357Z,95093.00
2018-08-13T20:55:05.972Z,95098.00
2018-08-13T20:57:36.930Z,95096.00
2018-08-13T21:00:11.371Z,95097.00
2018-08-13T21:02:43.297Z,95095.00
2018-08-13T21:05:14.277Z,95097.00
2018-08-13T21:07:46.197Z,95101.00
2018-08-13T21:10:19.398Z,95097.00
2018-08-13T21:12:50.816Z,95105.00
2018-08-13T21:15:21.937Z,95100.00
2018-08-13T21:17:53.018Z,95098.00
2018-08-13T21:20:29.031Z,95099.00
2018-08-13T21:23:00.110Z,95096.00
2018-08-13T21:25:31.142Z,95098.00
2018-08-13T21:28:02.058Z,95093.00
2018-08-13T21:30:32.977Z,95093.00
2018-08-13T21:33:03.829Z,95093.00
2018-08-13T21:35:34.836Z,95098.00
2018-08-13T21:38:05.842Z,95098.00
2018-08-13T21:40:36.817Z,95097.00
2018-08-13T21:43:07.738Z,95093.00
2018-08-13T21:45:38.737Z,95098.00
2018-08-13T21:48:10.201Z,95102.00
2018-08-13T21:50:41.196Z,95098.00
2018-08-13T21:53:12.298Z,95101.00
2018-08-13T21:55:43.346Z,95096.00
2018-08-13T21:58:19.869Z,95104.00
2018-08-13T22:01:08.197Z,95104.00
2018-08-13T22:03:44.818Z,95107.00
2018-08-13T22:06:21.389Z,95103.00
2018-08-13T22:08:57.821Z,95101.00
2018-08-13T22:11:34.237Z,95099.00
2018-08-13T22:14:11.438Z,95103.00
2018-08-13T22:16:47.928Z,95100.00
2018-08-13T22:19:24.558Z,95106.00
2018-08-13T22:22:00.961Z,95101.00
2018-08-13T22:24:53.737Z,95109.00
2018-08-13T22:27:30.357Z,95114.00
2018-08-13T22:30:09.477Z,95112.00
2018-08-13T22:32:46.025Z,95109.00
2018-08-13T22:35:22.569Z,95109.00
2018-08-13T22:37:59.517Z,95106.00
2018-08-13T22:40:36.227Z,95105.00
2018-08-13T22:43:12.749Z,95095.00
2018-08-13T22:45:49.090Z,95094.00
2018-08-13T22:48:25.847Z,95087.00
2018-08-13T22:51:02.441Z,95096.00
2018-08-13T22:53:38.917Z,95100.00
2018-08-13T22:56:15.458Z,95103.00
2018-08-13T22:58:52.191Z,95097.00
2018-08-13T23:01:29.012Z,95095.00
2018-08-13T23:04:05.580Z,95093.00
2018-08-13T23:06:42.220Z,95097.00
2018-08-13T23:09:18.668Z,95090.00
2018-08-13T23:11:55.301Z,95090.00
2018-08-13T23:14:31.738Z,95086.00
2018-08-13T23:17:08.476Z,95089.00
2018-08-13T23:19:45.077Z,95087.00
2018-08-13T23:22:48.199Z,95087.00
2018-08-13T23:25:24.637Z,95080.00
2018-08-13T23:28:02.761Z,95079.00
2018-08-13T23:30:39.320Z,95085.00
2018-08-13T23:33:15.920Z,95075.00
2018-08-13T23:35:52.519Z,95072.00
2018-08-13T23:38:28.975Z,95074.00
2018-08-13T23:41:05.570Z,95072.00
2018-08-13T23:43:42.199Z,95072.00
2018-08-13T23:46:18.658Z,95072.00
2018-08-13T23:48:55.149Z,95073.00
2018-08-13T23:51:31.545Z,95071.00
2018-08-13T23:54:07.969Z,95078.00
2018-08-13T23:56:44.457Z,95077.00
2018-08-13T23:59:21.059Z,95073.00
